TimeEDT,TemperatureF,Dew PointF,Humidity,Sea Level PressureIn,VisibilityMPH,Wind Direction,Wind SpeedMPH,Gust SpeedMPH,PrecipitationIn,Events,Conditions,WindDirDegrees,DateUTC
12:05 AM,48.2,46.4,93,30.06,10.0,Variable,5.8,-,N/A,,Overcast,0,2012-10-08 04:05:00
12:53 AM,48.0,45.0,89,30.07,5.0,NNW,3.5,-,0.04,Rain,Light Rain,330,2012-10-08 04:53:00
1:53 AM,46.9,45.0,93,30.08,10.0,WNW,3.5,-,0.01,,Overcast,300,2012-10-08 05:53:00
2:53 AM,46.9,44.1,90,30.06,10.0,Variable,3.5,-,N/A,,Mostly Cloudy,0,2012-10-08 06:53:00
3:53 AM,45.0,42.1,90,30.09,10.0,Calm,Calm,-,N/A,,Clear,0,2012-10-08 07:53:00
4:53 AM,43.0,41.0,93,30.11,10.0,Calm,Calm,-,N/A,,Clear,0,2012-10-08 08:53:00
5:53 AM,42.1,39.9,92,30.13,10.0,Calm,Calm,-,N/A,,Clear,0,2012-10-08 09:53:00
6:53 AM,41.0,39.9,96,30.14,10.0,Calm,Calm,-,N/A,,Clear,0,2012-10-08 10:53:00
7:53 AM,46.0,43.0,89,30.17,10.0,Calm,Calm,-,N/A,,Clear,0,2012-10-08 11:53:00
8:53 AM,48.9,44.1,83,30.20,10.0,North,4.6,-,N/A,,Clear,350,2012-10-08 12:53:00
9:53 AM,53.1,44.1,71,30.22,10.0,North,5.8,-,N/A,,Clear,350,2012-10-08 13:53:00
10:53 AM,54.0,43.0,66,30.23,10.0,WNW,3.5,-,N/A,,Scattered Clouds,300,2012-10-08 14:53:00
11:53 AM,55.0,41.0,59,30.24,10.0,Calm,Calm,-,N/A,,Scattered Clouds,0,2012-10-08 15:53:00
12:53 PM,57.0,42.1,57,30.23,10.0,West,3.5,-,N/A,,Scattered Clouds,270,2012-10-08 16:53:00
1:53 PM,57.0,42.1,57,30.25,10.0,Variable,3.5,-,N/A,,Mostly Cloudy,0,2012-10-08 17:53:00
2:53 PM,55.0,43.0,64,30.25,10.0,South,4.6,-,N/A,,Mostly Cloudy,170,2012-10-08 18:53:00
3:53 PM,54.0,44.1,69,30.25,10.0,SSE,4.6,-,N/A,,Partly Cloudy,150,2012-10-08 19:53:00
4:53 PM,54.0,44.1,69,30.25,10.0,SSW,3.5,-,N/A,,Scattered Clouds,210,2012-10-08 20:53:00
5:53 PM,53.1,46.0,77,30.26,10.0,Calm,Calm,-,N/A,,Partly Cloudy,0,2012-10-08 21:53:00
6:53 PM,52.0,46.0,80,30.29,10.0,Calm,Calm,-,N/A,,Mostly Cloudy,0,2012-10-08 22:53:00
7:53 PM,51.8,46.4,82,30.29,10.0,Calm,Calm,-,N/A,,Mostly Cloudy,0,2012-10-08 23:53:00
8:53 PM,50.0,48.2,94,30.30,10.0,Calm,Calm,-,N/A,,Overcast,0,2012-10-09 00:53:00
9:53 PM,50.0,46.0,86,30.29,10.0,NNE,3.5,-,N/A,,Partly Cloudy,30,2012-10-09 01:53:00
10:53 PM,50.0,46.0,86,30.28,10.0,NE,3.5,-,N/A,,Clear,40,2012-10-09 02:53:00
11:53 PM,50.0,46.0,86,30.27,10.0,NE,5.8,-,N/A,,Clear,50,2012-10-09 03:53:00